createdAt,value
2023-01-22T00:01:41.192Z,20.33
2023-01-22T00:14:33.150Z,17.33
2023-01-22T00:17:00.427Z,17.00
2023-01-22T00:19:27.448Z,18.33
2023-01-22T00:21:54.568Z,16.33
2023-01-22T00:24:21.349Z,16.00
2023-01-22T00:26:48.108Z,17.00
2023-01-22T00:29:15.099Z,17.33
2023-01-22T00:31:43.431Z,14.67
2023-01-22T00:34:10.580Z,16.00
2023-01-22T00:36:37.704Z,20.33
2023-01-22T00:39:04.795Z,17.33
2023-01-22T00:41:37.094Z,16.00
2023-01-22T00:44:04.507Z,17.00
2023-01-22T00:46:31.317Z,16.33
2023-01-22T00:49:00.091Z,17.67
2023-01-22T00:51:26.938Z,16.00
2023-01-22T00:53:54.040Z,14.67
2023-01-22T00:56:21.012Z,15.33
2023-01-22T00:58:47.947Z,14.67
2023-01-22T01:01:20.668Z,17.67
2023-01-22T01:03:47.503Z,14.67
2023-01-22T01:06:18.977Z,15.00
2023-01-22T01:08:48.208Z,16.33
2023-01-22T01:11:18.853Z,16.33
2023-01-22T01:13:45.784Z,14.33
2023-01-22T01:16:16.744Z,16.00
2023-01-22T01:18:45.876Z,15.67
2023-01-22T01:21:13.139Z,14.67
2023-01-22T01:23:42.403Z,13.33
2023-01-22T01:26:13.537Z,12.33
2023-01-22T01:28:42.578Z,16.00
2023-01-22T01:31:13.561Z,17.33
2023-01-22T01:33:41.422Z,16.33
2023-01-22T01:36:12.058Z,12.00
2023-01-22T01:38:40.012Z,18.00
2023-01-22T01:41:11.970Z,12.67
2023-01-22T01:43:38.899Z,15.00
2023-01-22T01:46:21.408Z,14.00
2023-01-22T01:48:52.986Z,14.00
2023-01-22T01:51:28.901Z,11.33
2023-01-22T01:53:57.403Z,16.67
2023-01-22T01:56:30.316Z,18.67
2023-01-22T01:59:03.774Z,27.33
2023-01-22T02:01:32.653Z,36.67
2023-01-22T02:04:01.225Z,35.67
2023-01-22T02:06:28.262Z,34.33
2023-01-22T02:08:56.882Z,30.00
2023-01-22T02:11:27.007Z,28.33
2023-01-22T02:14:02.659Z,29.33
2023-01-22T02:16:29.940Z,28.33
2023-01-22T02:18:56.833Z,30.67
2023-01-22T02:21:32.374Z,30.67
2023-01-22T02:23:59.941Z,30.67
2023-01-22T02:26:28.451Z,28.00
2023-01-22T02:28:56.868Z,29.33
2023-01-22T02:31:27.228Z,22.33
2023-01-22T02:33:54.471Z,13.67
2023-01-22T02:36:22.445Z,15.00
2023-01-22T02:38:52.088Z,20.67
2023-01-22T02:41:19.090Z,21.00
2023-01-22T02:43:46.405Z,18.33
2023-01-22T02:46:13.868Z,18.67
2023-01-22T02:48:40.924Z,15.67
2023-01-22T02:51:08.483Z,14.33
2023-01-22T02:53:35.461Z,17.33
2023-01-22T02:56:08.917Z,17.00
2023-01-22T02:58:36.933Z,16.33
2023-01-22T03:01:10.147Z,16.00
2023-01-22T03:03:37.480Z,18.00
2023-01-22T03:06:04.876Z,16.67
2023-01-22T03:08:31.953Z,20.67
2023-01-22T03:10:59.090Z,17.00
2023-01-22T03:13:28.768Z,11.67
2023-01-22T03:15:56.734Z,16.00
2023-01-22T03:18:23.573Z,17.00
2023-01-22T03:20:51.935Z,4.00
2023-01-22T03:23:18.984Z,5.00
2023-01-22T03:25:48.332Z,11.00
2023-01-22T03:28:15.215Z,8.00
2023-01-22T03:30:43.514Z,11.25
2023-01-22T03:33:10.434Z,9.75
2023-01-22T03:35:38.007Z,14.25
2023-01-22T03:38:12.733Z,13.00
2023-01-22T03:40:40.220Z,13.75
2023-01-22T03:43:07.554Z,13.00
2023-01-22T03:45:35.602Z,11.67
2023-01-22T03:48:05.928Z,11.00
2023-01-22T03:50:37.777Z,11.33
2023-01-22T03:53:05.777Z,10.67
2023-01-22T03:55:33.598Z,12.33
2023-01-22T03:58:00.444Z,12.00
2023-01-22T04:00:27.617Z,14.33
2023-01-22T04:02:54.585Z,13.67
2023-01-22T04:05:27.995Z,14.00
2023-01-22T04:07:54.790Z,10.00
2023-01-22T04:10:25.867Z,11.00
2023-01-22T04:12:52.972Z,12.67
2023-01-22T04:15:22.267Z,16.67
2023-01-22T04:17:50.458Z,13.00
2023-01-22T04:20:42.811Z,10.75
2023-01-22T04:23:44.887Z,9.33
2023-01-22T04:26:12.315Z,9.33
2023-01-22T04:28:39.068Z,11.67
2023-01-22T04:31:06.381Z,8.33
2023-01-22T04:33:53.563Z,17.67
2023-01-22T04:36:29.106Z,16.00
2023-01-22T04:38:56.180Z,17.00
2023-01-22T04:41:23.245Z,17.00
2023-01-22T04:43:50.097Z,21.00
2023-01-22T04:46:17.604Z,16.33
2023-01-22T04:48:44.508Z,8.00
2023-01-22T04:51:11.422Z,17.00
2023-01-22T04:53:39.641Z,3.67
2023-01-22T04:56:07.926Z,12.00
2023-01-22T04:58:34.964Z,10.33
2023-01-22T05:01:01.976Z,5.67
2023-01-22T05:03:28.994Z,10.33
2023-01-22T05:05:56.531Z,8.00
2023-01-22T05:08:23.344Z,10.67
2023-01-22T05:10:52.332Z,8.00
2023-01-22T05:13:28.885Z,8.00
2023-01-22T05:15:55.923Z,9.33
2023-01-22T05:18:24.736Z,12.50
2023-01-22T05:20:52.522Z,13.00
2023-01-22T05:23:21.616Z,11.00
2023-01-22T05:25:49.421Z,10.00
2023-01-22T05:28:22.204Z,7.67
2023-01-22T05:31:08.106Z,12.00
2023-01-22T05:33:42.113Z,11.00
2023-01-22T05:36:11.855Z,11.67
2023-01-22T05:38:39.278Z,13.67
2023-01-22T05:41:06.533Z,12.67
2023-01-22T05:43:39.541Z,8.00
2023-01-22T05:46:09.517Z,7.00
2023-01-22T05:48:56.710Z,11.33
2023-01-22T05:51:26.191Z,11.67
2023-01-22T05:53:53.827Z,9.33
2023-01-22T05:56:20.791Z,12.00
2023-01-22T05:58:49.513Z,11.00
2023-01-22T06:01:17.204Z,9.00
2023-01-22T06:03:47.913Z,14.00
2023-01-22T06:06:19.473Z,11.33
2023-01-22T06:08:48.235Z,14.67
2023-01-22T06:11:17.387Z,16.25
2023-01-22T06:13:46.248Z,15.33
2023-01-22T06:16:24.305Z,15.00
2023-01-22T06:19:10.490Z,15.50
2023-01-22T06:21:47.579Z,14.67
2023-01-22T06:24:14.668Z,15.50
2023-01-22T06:26:41.634Z,17.33
2023-01-22T06:29:11.262Z,6.00
2023-01-22T06:31:40.524Z,24.00
2023-01-22T06:34:09.306Z,22.33
2023-01-22T06:36:36.439Z,22.67
2023-01-22T06:39:05.169Z,22.00
2023-01-22T06:41:39.641Z,23.00
2023-01-22T06:44:10.276Z,22.00
2023-01-22T06:46:37.707Z,24.33
2023-01-22T06:49:11.201Z,27.00
2023-01-22T06:51:39.900Z,25.67
2023-01-22T06:54:07.409Z,26.00
2023-01-22T06:56:34.278Z,28.67
2023-01-22T06:59:03.432Z,23.67
2023-01-22T07:01:30.499Z,23.33
2023-01-22T07:03:57.348Z,20.67
2023-01-22T07:06:25.596Z,22.67
2023-01-22T07:08:52.397Z,22.00
2023-01-22T07:11:19.459Z,16.00
2023-01-22T07:13:46.319Z,19.00
2023-01-22T07:16:13.351Z,12.67
2023-01-22T07:18:40.371Z,14.67
2023-01-22T07:21:07.311Z,19.67
2023-01-22T07:23:35.584Z,24.00
2023-01-22T07:26:02.486Z,20.33
2023-01-22T07:28:29.249Z,17.67
2023-01-22T07:30:56.100Z,21.67
2023-01-22T07:33:23.094Z,18.00
2023-01-22T07:35:55.036Z,19.00
2023-01-22T07:38:22.365Z,15.75
2023-01-22T07:40:50.465Z,16.00
2023-01-22T07:43:17.337Z,19.50
2023-01-22T07:45:44.427Z,15.75
2023-01-22T07:48:11.869Z,16.25
2023-01-22T07:50:38.995Z,16.75
2023-01-22T07:53:06.675Z,18.25
2023-01-22T07:55:33.704Z,17.00
2023-01-22T07:58:05.548Z,17.75
2023-01-22T08:00:35.397Z,15.25
2023-01-22T08:03:04.909Z,15.00
2023-01-22T08:05:31.831Z,14.00
2023-01-22T08:07:58.985Z,14.75
2023-01-22T08:10:25.904Z,15.00
2023-01-22T08:12:52.728Z,14.50
2023-01-22T08:15:21.038Z,14.75
2023-01-22T08:17:49.650Z,15.50
2023-01-22T08:20:18.313Z,14.50
2023-01-22T08:22:45.387Z,13.00
2023-01-22T08:25:12.714Z,15.75
2023-01-22T08:27:39.601Z,15.25
2023-01-22T08:30:08.767Z,12.25
2023-01-22T08:32:37.891Z,14.00
2023-01-22T08:35:06.003Z,16.50
2023-01-22T08:37:32.771Z,15.25
2023-01-22T08:39:59.531Z,13.25
2023-01-22T08:42:26.437Z,14.25
2023-01-22T08:44:53.461Z,15.25
2023-01-22T08:47:20.246Z,13.50
2023-01-22T08:49:48.433Z,16.25
2023-01-22T08:52:15.701Z,14.75
2023-01-22T08:54:42.613Z,10.75
2023-01-22T08:57:09.546Z,16.00
2023-01-22T08:59:36.365Z,18.00
2023-01-22T09:02:03.591Z,13.25
2023-01-22T09:04:30.604Z,14.00
2023-01-22T09:06:58.737Z,11.00
2023-01-22T09:09:25.707Z,15.75
2023-01-22T09:11:52.483Z,12.50
2023-01-22T09:14:19.399Z,14.00
2023-01-22T09:16:46.316Z,16.50
2023-01-22T09:19:13.368Z,11.75
2023-01-22T09:21:40.363Z,15.25
2023-01-22T09:24:09.385Z,14.00
2023-01-22T09:26:36.955Z,14.00
2023-01-22T09:29:05.452Z,27.33
2023-01-22T09:31:32.380Z,17.50
2023-01-22T09:33:59.802Z,12.00
2023-01-22T09:36:27.175Z,13.00
2023-01-22T09:38:54.505Z,14.50
2023-01-22T09:41:29.889Z,13.00
2023-01-22T09:44:05.177Z,13.25
2023-01-22T09:46:43.016Z,13.00
2023-01-22T09:49:15.838Z,12.00
2023-01-22T09:51:46.948Z,13.00
2023-01-22T09:54:15.001Z,12.75
2023-01-22T09:56:47.038Z,10.75
2023-01-22T09:59:18.572Z,11.75
2023-01-22T10:01:52.465Z,12.75
2023-01-22T10:04:33.895Z,8.50
2023-01-22T10:07:04.193Z,10.50
2023-01-22T10:09:33.772Z,10.00
2023-01-22T10:12:11.882Z,11.25
2023-01-22T10:14:39.318Z,11.25
2023-01-22T10:17:21.457Z,10.50
2023-01-22T10:19:55.352Z,9.50
2023-01-22T10:22:24.957Z,11.00
2023-01-22T10:24:53.158Z,8.75
2023-01-22T10:27:32.081Z,10.50
2023-01-22T10:30:07.082Z,11.00
2023-01-22T10:32:34.128Z,5.25
2023-01-22T10:35:05.706Z,10.50
2023-01-22T10:37:44.943Z,8.75
2023-01-22T10:40:24.504Z,9.50
2023-01-22T10:43:06.032Z,9.75
2023-01-22T10:45:33.129Z,8.75
2023-01-22T10:48:05.788Z,12.00
2023-01-22T10:50:32.949Z,9.00
2023-01-22T10:52:59.803Z,8.50
2023-01-22T10:55:31.663Z,11.50
2023-01-22T10:58:06.543Z,12.00
2023-01-22T11:00:50.504Z,5.50
2023-01-22T11:03:22.097Z,11.25
2023-01-22T11:05:58.424Z,9.50
2023-01-22T11:08:38.518Z,10.50
2023-01-22T11:11:10.835Z,10.00
2023-01-22T11:13:50.680Z,10.50
2023-01-22T11:16:20.431Z,10.00
2023-01-22T11:18:55.844Z,10.00
2023-01-22T11:21:29.872Z,10.50
2023-01-22T11:24:08.672Z,8.25
2023-01-22T11:26:55.021Z,7.00
2023-01-22T11:29:50.611Z,7.25
2023-01-22T11:32:46.376Z,7.00
2023-01-22T11:35:25.350Z,7.75
2023-01-22T11:38:17.977Z,5.25
2023-01-22T11:41:05.329Z,6.75
2023-01-22T11:43:55.244Z,7.25
2023-01-22T11:46:51.616Z,7.75
2023-01-22T11:49:35.353Z,7.75
2023-01-22T11:52:22.060Z,7.00
2023-01-22T11:55:22.206Z,7.50
2023-01-22T11:58:08.594Z,6.25
2023-01-22T12:00:51.824Z,7.00
2023-01-22T12:04:00.191Z,6.75
2023-01-22T12:06:56.919Z,7.00
2023-01-22T12:09:34.909Z,4.25
2023-01-22T12:12:19.974Z,5.50
2023-01-22T12:15:04.616Z,7.00
2023-01-22T12:17:51.017Z,10.00
2023-01-22T12:20:52.289Z,12.25
2023-01-22T12:23:30.737Z,8.75
2023-01-22T12:26:04.425Z,7.25
2023-01-22T12:28:41.802Z,6.00
2023-01-22T12:31:19.327Z,7.50
2023-01-22T12:33:46.308Z,6.25
2023-01-22T12:36:21.585Z,6.25
2023-01-22T12:38:57.284Z,7.00
2023-01-22T12:41:46.306Z,6.75
2023-01-22T12:44:31.020Z,7.00
2023-01-22T12:47:13.022Z,7.50
2023-01-22T12:49:48.762Z,6.75
2023-01-22T12:52:35.640Z,7.00
2023-01-22T12:55:21.951Z,6.75
2023-01-22T12:57:49.161Z,6.00
2023-01-22T13:00:33.006Z,7.25
2023-01-22T13:03:01.369Z,6.00
2023-01-22T13:05:41.393Z,6.00
2023-01-22T13:08:27.876Z,6.25
2023-01-22T13:10:58.678Z,6.75
2023-01-22T13:13:31.950Z,8.25
2023-01-22T13:16:05.159Z,7.00
2023-01-22T13:18:41.488Z,6.00
2023-01-22T13:21:12.091Z,3.75
2023-01-22T13:23:45.897Z,4.00
2023-01-22T13:26:19.270Z,5.00
2023-01-22T13:28:53.411Z,5.75
2023-01-22T13:31:20.455Z,5.25
2023-01-22T13:34:00.019Z,5.75
2023-01-22T13:36:28.023Z,5.00
2023-01-22T13:38:59.143Z,3.75
2023-01-22T13:41:30.905Z,5.00
2023-01-22T13:43:59.190Z,3.75
2023-01-22T13:46:27.890Z,6.25
2023-01-22T13:49:11.715Z,5.00
2023-01-22T13:51:40.442Z,7.00
2023-01-22T13:54:21.807Z,6.50
2023-01-22T13:56:48.912Z,6.25
2023-01-22T13:59:21.243Z,5.50
2023-01-22T14:01:49.439Z,7.75
2023-01-22T14:04:35.291Z,6.25
2023-01-22T14:07:03.496Z,6.25
2023-01-22T14:09:35.544Z,6.00
2023-01-22T14:12:15.455Z,6.75
2023-01-22T14:14:42.774Z,5.75
2023-01-22T14:17:22.630Z,7.00
2023-01-22T14:19:50.502Z,6.75
2023-01-22T14:22:17.960Z,7.50
2023-01-22T14:24:46.099Z,5.75
2023-01-22T14:27:13.284Z,7.00
2023-01-22T14:29:40.397Z,7.00
2023-01-22T14:32:07.167Z,6.00
2023-01-22T14:34:33.997Z,6.75
2023-01-22T14:37:00.841Z,6.00
2023-01-22T14:39:32.204Z,5.00
2023-01-22T14:42:01.549Z,8.00
2023-01-22T14:44:28.465Z,7.00
2023-01-22T14:46:55.386Z,7.00
2023-01-22T14:49:22.381Z,8.00
2023-01-22T14:51:52.055Z,10.00
2023-01-22T14:54:19.399Z,8.00
2023-01-22T14:56:46.278Z,8.25
2023-01-22T14:59:14.489Z,6.00
2023-01-22T15:01:41.390Z,6.50
2023-01-22T15:04:08.268Z,6.75
2023-01-22T15:06:35.310Z,6.75
2023-01-22T15:09:02.117Z,6.25
2023-01-22T15:11:29.047Z,6.25
2023-01-22T15:13:55.950Z,5.00
2023-01-22T15:16:24.317Z,9.00
2023-01-22T15:18:54.891Z,6.75
2023-01-22T15:21:22.376Z,7.00
2023-01-22T15:23:49.172Z,6.50
2023-01-22T15:26:26.563Z,6.00
2023-01-22T15:28:54.987Z,6.00
2023-01-22T15:31:21.996Z,10.00
2023-01-22T15:33:50.609Z,9.25
2023-01-22T15:36:17.552Z,7.00
2023-01-22T15:38:44.333Z,2.00
2023-01-22T15:41:20.268Z,6.00
2023-01-22T15:43:51.275Z,6.50
2023-01-22T15:46:19.997Z,7.75
2023-01-22T15:48:47.564Z,12.50
2023-01-22T15:51:16.556Z,7.00
2023-01-22T15:53:48.946Z,6.00
2023-01-22T15:56:16.347Z,6.25
2023-01-22T15:58:44.259Z,7.00
2023-01-22T16:01:11.519Z,6.00
2023-01-22T16:03:38.574Z,6.50
2023-01-22T16:06:10.844Z,6.00
2023-01-22T16:08:40.319Z,7.00
2023-01-22T16:11:08.445Z,7.50
2023-01-22T16:13:35.973Z,8.50
2023-01-22T16:16:06.720Z,9.00
2023-01-22T16:18:35.440Z,6.25
2023-01-22T16:21:03.440Z,6.50
2023-01-22T16:23:31.867Z,6.75
2023-01-22T16:26:04.170Z,5.50
2023-01-22T16:28:31.421Z,7.00
2023-01-22T16:31:03.598Z,7.25
2023-01-22T16:33:34.299Z,7.00
2023-01-22T16:36:03.880Z,7.00
2023-01-22T16:38:31.869Z,7.75
2023-01-22T16:41:27.581Z,6.75
2023-01-22T16:43:58.981Z,7.25
2023-01-22T16:46:29.333Z,7.50
2023-01-22T16:48:59.831Z,6.50
2023-01-22T16:51:32.617Z,7.00
2023-01-22T16:53:59.454Z,7.00
2023-01-22T16:56:27.728Z,6.00
2023-01-22T16:58:54.757Z,5.00
2023-01-22T17:01:21.915Z,6.50
2023-01-22T17:03:48.782Z,7.00
2023-01-22T17:06:26.844Z,7.00
2023-01-22T17:08:54.725Z,7.25
2023-01-22T17:11:22.344Z,7.00
2023-01-22T17:13:50.695Z,7.00
2023-01-22T17:16:18.751Z,8.00
2023-01-22T17:18:46.555Z,8.00
2023-01-22T17:21:18.898Z,8.25
2023-01-22T17:23:46.069Z,7.50
2023-01-22T17:26:17.007Z,7.00
2023-01-22T17:28:44.389Z,6.25
2023-01-22T17:31:15.681Z,6.50
2023-01-22T17:33:43.610Z,7.25
2023-01-22T17:36:13.151Z,4.00
2023-01-22T17:38:40.364Z,7.00
2023-01-22T17:41:10.601Z,6.75
2023-01-22T17:43:38.175Z,6.00
2023-01-22T17:46:10.576Z,8.00
2023-01-22T17:48:39.981Z,7.00
2023-01-22T17:51:09.425Z,7.00
2023-01-22T17:53:38.692Z,7.75
2023-01-22T17:56:13.906Z,9.00
2023-01-22T17:58:42.983Z,11.50
2023-01-22T18:01:12.723Z,9.50
2023-01-22T18:03:41.707Z,8.75
2023-01-22T18:06:09.673Z,8.00
2023-01-22T18:08:37.622Z,8.25
2023-01-22T18:11:09.949Z,9.00
2023-01-22T18:13:38.547Z,8.25
2023-01-22T18:16:07.961Z,10.50
2023-01-22T18:18:35.753Z,10.00
2023-01-22T18:21:05.847Z,9.75
2023-01-22T18:23:32.931Z,8.00
2023-01-22T18:26:05.069Z,8.50
2023-01-22T18:28:33.349Z,8.25
2023-01-22T18:31:05.374Z,10.00
2023-01-22T18:33:32.728Z,11.00
2023-01-22T18:36:00.497Z,11.50
2023-01-22T18:38:29.112Z,11.50
2023-01-22T18:40:55.927Z,11.00
2023-01-22T18:43:23.206Z,9.00
2023-01-22T18:45:50.056Z,10.00
2023-01-22T18:48:17.065Z,9.75
2023-01-22T18:50:51.593Z,9.00
2023-01-22T18:53:19.287Z,10.00
2023-01-22T18:55:47.851Z,11.25
2023-01-22T18:58:14.782Z,10.00
2023-01-22T19:00:41.704Z,10.00
2023-01-22T19:03:08.859Z,11.00
2023-01-22T19:05:39.608Z,11.00
2023-01-22T19:08:06.698Z,12.50
2023-01-22T19:10:33.531Z,11.00
2023-01-22T19:13:01.999Z,8.00
2023-01-22T19:15:29.126Z,10.50
2023-01-22T19:17:55.955Z,12.25
2023-01-22T19:20:22.847Z,15.00
2023-01-22T19:22:49.699Z,9.25
2023-01-22T19:25:17.257Z,12.50
2023-01-22T19:27:44.357Z,12.00
2023-01-22T19:30:13.223Z,13.00
2023-01-22T19:32:40.115Z,10.00
2023-01-22T19:35:08.056Z,7.25
2023-01-22T19:37:35.102Z,8.00
2023-01-22T19:40:18.915Z,9.75
2023-01-22T19:42:45.844Z,10.50
2023-01-22T19:45:14.471Z,9.00
2023-01-22T19:47:41.369Z,12.50
2023-01-22T19:50:09.887Z,12.50
2023-01-22T19:52:36.824Z,13.00
2023-01-22T19:55:04.227Z,12.75
2023-01-22T19:57:31.357Z,11.50
2023-01-22T19:59:58.215Z,8.00
2023-01-22T20:02:27.255Z,10.00
2023-01-22T20:04:54.160Z,10.25
2023-01-22T20:07:21.090Z,7.75
2023-01-22T20:09:49.039Z,10.00
2023-01-22T20:12:16.066Z,10.25
2023-01-22T20:14:42.888Z,10.00
2023-01-22T20:17:10.380Z,9.25
2023-01-22T20:19:38.852Z,10.00
2023-01-22T20:22:06.081Z,10.25
2023-01-22T20:24:33.926Z,11.00
2023-01-22T20:27:00.769Z,9.75
2023-01-22T20:29:27.769Z,9.75
2023-01-22T20:31:55.930Z,13.50
2023-01-22T20:34:23.183Z,15.00
2023-01-22T20:36:51.752Z,13.25
2023-01-22T20:39:18.892Z,9.00
2023-01-22T20:41:46.111Z,9.25
2023-01-22T20:44:14.103Z,8.25
2023-01-22T20:46:41.035Z,11.75
2023-01-22T20:49:08.410Z,9.00
2023-01-22T20:51:35.672Z,8.75
2023-01-22T20:54:04.425Z,11.00
2023-01-22T20:56:33.773Z,11.25
2023-01-22T20:59:03.086Z,12.00
2023-01-22T21:01:30.789Z,11.50
2023-01-22T21:03:59.851Z,10.00
2023-01-22T21:06:29.404Z,11.25
2023-01-22T21:08:57.944Z,13.00
2023-01-22T21:11:29.128Z,13.00
2023-01-22T21:13:58.226Z,10.25
2023-01-22T21:16:27.747Z,9.50
2023-01-22T21:18:59.401Z,10.75
2023-01-22T21:21:28.193Z,8.75
2023-01-22T21:23:56.478Z,10.25
2023-01-22T21:26:27.810Z,6.75
2023-01-22T21:28:57.422Z,10.25
2023-01-22T21:31:25.357Z,12.75
2023-01-22T21:33:53.291Z,11.25
2023-01-22T21:36:20.189Z,11.50
2023-01-22T21:38:47.894Z,11.50
2023-01-22T21:41:18.356Z,13.00
2023-01-22T21:43:47.672Z,10.25
2023-01-22T21:46:16.022Z,9.00
2023-01-22T21:48:42.942Z,12.00
2023-01-22T21:51:09.831Z,10.25
2023-01-22T21:53:36.927Z,12.00
2023-01-22T21:56:04.535Z,9.25
2023-01-22T21:58:31.509Z,9.75
2023-01-22T22:01:05.145Z,8.00
2023-01-22T22:03:31.977Z,10.75
2023-01-22T22:06:01.225Z,11.50
2023-01-22T22:08:29.384Z,10.25
2023-01-22T22:10:56.743Z,11.25
2023-01-22T22:13:24.088Z,11.25
2023-01-22T22:15:50.937Z,9.00
2023-01-22T22:18:19.081Z,12.00
2023-01-22T22:20:46.034Z,12.25
2023-01-22T22:23:13.303Z,12.75
2023-01-22T22:25:40.101Z,11.25
2023-01-22T22:28:06.873Z,9.50
2023-01-22T22:30:34.801Z,14.00
2023-01-22T22:33:01.559Z,11.75
2023-01-22T22:35:30.259Z,12.50
2023-01-22T22:37:57.307Z,11.25
2023-01-22T22:40:24.187Z,12.25
2023-01-22T22:42:50.977Z,11.50
2023-01-22T22:45:18.127Z,12.00
2023-01-22T22:47:45.011Z,13.00
2023-01-22T22:50:11.908Z,14.25
2023-01-22T22:52:40.315Z,12.25
2023-01-22T22:55:08.210Z,12.50
2023-01-22T22:57:35.041Z,11.00
2023-01-22T23:00:01.888Z,12.00
2023-01-22T23:02:28.723Z,11.00
2023-01-22T23:04:55.606Z,10.50
2023-01-22T23:07:22.401Z,14.25
2023-01-22T23:09:50.894Z,13.25
2023-01-22T23:12:17.701Z,13.00
2023-01-22T23:14:44.495Z,12.50
2023-01-22T23:17:11.404Z,13.75
2023-01-22T23:19:38.352Z,13.25
2023-01-22T23:22:05.474Z,13.50
2023-01-22T23:24:32.244Z,13.00
2023-01-22T23:27:00.678Z,14.50
2023-01-22T23:29:28.155Z,15.75
2023-01-22T23:31:55.245Z,13.00
2023-01-22T23:34:23.316Z,14.25
2023-01-22T23:36:51.006Z,12.50
2023-01-22T23:39:20.838Z,12.25
2023-01-22T23:41:47.994Z,14.25
2023-01-22T23:44:16.418Z,16.00
2023-01-22T23:46:43.850Z,15.00
2023-01-22T23:49:10.750Z,12.00
2023-01-22T23:51:38.000Z,14.00
2023-01-22T23:54:05.198Z,8.00
2023-01-22T23:56:32.197Z,12.75
2023-01-22T23:58:59.953Z,13.00
